New Liskeard, Canada
Current Conditions -  °F | °C
As of 6:20 AM on Sunday 21 Dec 2014 (Local Time) from CYXR Reporting Station
Overcast Overcast  
Wind Chill:   Ceiling: 400
Heat Index:   Visibility: 9mi
Dew Point: -2°   Wind: 2mph
Humidity: 85%   Direction: 330°NNW
Pressure: 30.26"   Gusts: NA
Location:  47.5°N, 79.67°W
Report Text: CYXR 211120Z AUTO 33002KT 9SM BKN004 OVC065 M17/M19 A3026 RMK SLP274
Loading
Personal Weather Stations






























Interactive Weather Map New forecast layout! Learn more

10-Day Weather Forecast

Advertisements
Track Severe Weather on mobile